createdAt,value
2022-07-26T00:00:11.000Z,0
2022-07-26T00:01:27.000Z,0
2022-07-26T00:02:44.000Z,0
2022-07-26T00:03:59.000Z,0
2022-07-26T00:05:14.000Z,0
2022-07-26T00:06:29.000Z,0
2022-07-26T00:07:45.000Z,0
2022-07-26T00:09:01.000Z,0
2022-07-26T00:10:17.000Z,0
2022-07-26T00:11:33.000Z,0
2022-07-26T00:12:49.000Z,0
2022-07-26T00:14:05.000Z,0
2022-07-26T00:15:22.000Z,0
2022-07-26T00:16:38.000Z,0
2022-07-26T00:17:54.000Z,0
2022-07-26T00:19:10.000Z,0
2022-07-26T00:20:26.000Z,0
2022-07-26T00:21:43.000Z,0
2022-07-26T00:22:59.000Z,0
2022-07-26T00:24:14.000Z,0
2022-07-26T00:25:30.000Z,0
2022-07-26T00:26:46.000Z,0
2022-07-26T00:28:03.000Z,0
2022-07-26T00:29:19.000Z,0
2022-07-26T00:30:35.000Z,0
2022-07-26T00:31:51.000Z,0
2022-07-26T00:33:06.000Z,0
2022-07-26T00:35:38.000Z,0
2022-07-26T00:36:54.000Z,0
2022-07-26T00:38:09.000Z,0
2022-07-26T00:39:24.000Z,0
2022-07-26T00:40:41.000Z,0
2022-07-26T00:41:57.000Z,0
2022-07-26T00:43:13.000Z,0
2022-07-26T00:44:29.000Z,0
2022-07-26T00:45:45.000Z,0
2022-07-26T00:47:02.000Z,0
2022-07-26T00:48:18.000Z,0
2022-07-26T00:49:34.000Z,0
2022-07-26T00:50:50.000Z,0
2022-07-26T00:52:06.000Z,0
2022-07-26T00:53:23.000Z,0
2022-07-26T00:54:39.000Z,0
2022-07-26T00:55:54.000Z,0
2022-07-26T00:57:10.000Z,0
2022-07-26T00:58:26.000Z,0
2022-07-26T00:59:43.000Z,0
2022-07-26T01:00:59.000Z,0
2022-07-26T01:02:15.000Z,0
2022-07-26T01:03:31.000Z,0
2022-07-26T01:04:46.000Z,0
2022-07-26T01:06:02.000Z,0
2022-07-26T01:07:18.000Z,0
2022-07-26T01:08:33.000Z,0
2022-07-26T01:09:48.000Z,0
2022-07-26T01:11:04.000Z,0
2022-07-26T01:12:21.000Z,0
2022-07-26T01:13:37.000Z,0
2022-07-26T01:14:53.000Z,0
2022-07-26T01:16:09.000Z,0
2022-07-26T01:17:25.000Z,0
2022-07-26T01:18:42.000Z,0
2022-07-26T01:19:58.000Z,0
2022-07-26T01:21:14.000Z,0
2022-07-26T01:22:30.000Z,0
2022-07-26T01:23:46.000Z,0
2022-07-26T01:25:03.000Z,0
2022-07-26T01:26:18.000Z,0
2022-07-26T01:27:34.000Z,0
2022-07-26T01:28:50.000Z,0
2022-07-26T01:30:06.000Z,0
2022-07-26T01:31:23.000Z,0
2022-07-26T01:32:39.000Z,0
2022-07-26T01:33:55.000Z,0
2022-07-26T01:35:10.000Z,0
2022-07-26T01:36:25.000Z,0
2022-07-26T01:38:58.000Z,0
2022-07-26T01:40:14.000Z,0
2022-07-26T01:41:29.000Z,0
2022-07-26T01:42:44.000Z,0
2022-07-26T01:44:01.000Z,0
2022-07-26T01:45:17.000Z,0
2022-07-26T01:46:33.000Z,0
2022-07-26T01:47:49.000Z,0
2022-07-26T01:49:05.000Z,0
2022-07-26T01:50:21.000Z,0
2022-07-26T01:51:38.000Z,0
2022-07-26T01:52:54.000Z,0
2022-07-26T01:54:10.000Z,0
2022-07-26T01:55:26.000Z,0
2022-07-26T01:56:42.000Z,0
2022-07-26T01:57:59.000Z,0
2022-07-26T01:59:14.000Z,0
2022-07-26T02:00:30.000Z,0
2022-07-26T02:01:46.000Z,0
2022-07-26T02:03:02.000Z,0
2022-07-26T02:04:19.000Z,0
2022-07-26T02:05:35.000Z,0
2022-07-26T02:06:51.000Z,0
2022-07-26T02:08:06.000Z,0
2022-07-26T02:09:21.000Z,0
2022-07-26T02:10:37.000Z,0
2022-07-26T02:11:52.000Z,0
2022-07-26T02:13:08.000Z,0
2022-07-26T02:14:24.000Z,0
2022-07-26T02:15:40.000Z,0
2022-07-26T02:16:57.000Z,0
2022-07-26T02:18:13.000Z,0
2022-07-26T02:19:29.000Z,0
2022-07-26T02:20:45.000Z,0
2022-07-26T02:22:01.000Z,0
2022-07-26T02:23:18.000Z,0
2022-07-26T02:24:34.000Z,0
2022-07-26T02:25:50.000Z,0
2022-07-26T02:27:06.000Z,0
2022-07-26T02:28:21.000Z,0
2022-07-26T02:29:38.000Z,0
2022-07-26T02:30:54.000Z,0
2022-07-26T02:32:10.000Z,0
2022-07-26T02:33:26.000Z,0
2022-07-26T02:34:42.000Z,0
2022-07-26T02:35:59.000Z,0
2022-07-26T02:37:14.000Z,0
2022-07-26T02:38:29.000Z,0
2022-07-26T02:39:44.000Z,0
2022-07-26T02:40:59.000Z,0
2022-07-26T02:42:16.000Z,0
2022-07-26T02:43:32.000Z,0
2022-07-26T02:44:48.000Z,0
2022-07-26T02:46:04.000Z,0
2022-07-26T02:47:20.000Z,0
2022-07-26T02:48:37.000Z,0
2022-07-26T02:49:53.000Z,0
2022-07-26T02:51:09.000Z,0
2022-07-26T02:52:25.000Z,0
2022-07-26T02:53:41.000Z,0
2022-07-26T02:54:58.000Z,0
2022-07-26T02:56:13.000Z,0
2022-07-26T02:57:29.000Z,0
2022-07-26T02:58:45.000Z,0
2022-07-26T03:00:01.000Z,0
2022-07-26T03:01:18.000Z,0
2022-07-26T03:02:34.000Z,0
2022-07-26T03:03:50.000Z,0
2022-07-26T03:05:06.000Z,0
2022-07-26T03:06:21.000Z,0
2022-07-26T03:07:37.000Z,0
2022-07-26T03:08:53.000Z,0
2022-07-26T03:10:08.000Z,0
2022-07-26T03:11:23.000Z,0
2022-07-26T03:12:39.000Z,0
2022-07-26T03:13:56.000Z,0
2022-07-26T03:15:12.000Z,0
2022-07-26T03:16:28.000Z,0
2022-07-26T03:17:44.000Z,0
2022-07-26T03:19:00.000Z,0
2022-07-26T03:20:17.000Z,0
2022-07-26T03:21:33.000Z,0
2022-07-26T03:22:49.000Z,0
2022-07-26T03:24:05.000Z,0
2022-07-26T03:25:21.000Z,0
2022-07-26T03:26:37.000Z,0
2022-07-26T03:27:53.000Z,0
2022-07-26T03:29:09.000Z,0
2022-07-26T03:30:25.000Z,0
2022-07-26T03:31:41.000Z,0
2022-07-26T03:32:57.000Z,0
2022-07-26T03:34:14.000Z,0
2022-07-26T03:35:30.000Z,0
2022-07-26T03:36:45.000Z,0
2022-07-26T03:38:00.000Z,0
2022-07-26T03:39:16.000Z,0
2022-07-26T03:40:32.000Z,0
2022-07-26T03:41:47.000Z,0
2022-07-26T03:43:03.000Z,0
2022-07-26T03:44:19.000Z,0
2022-07-26T03:45:35.000Z,0
2022-07-26T03:46:52.000Z,0
2022-07-26T03:48:08.000Z,0
2022-07-26T03:49:24.000Z,0
2022-07-26T03:50:40.000Z,0
2022-07-26T03:51:56.000Z,0
2022-07-26T03:53:13.000Z,0
2022-07-26T03:54:29.000Z,5
2022-07-26T03:55:45.000Z,5
2022-07-26T03:57:01.000Z,5
2022-07-26T03:58:16.000Z,5
2022-07-26T03:59:33.000Z,5
2022-07-26T04:00:49.000Z,5
2022-07-26T04:02:05.000Z,5
2022-07-26T04:03:21.000Z,5
2022-07-26T04:04:37.000Z,5
2022-07-26T04:05:54.000Z,5
2022-07-26T04:07:09.000Z,5
2022-07-26T04:08:24.000Z,5
2022-07-26T04:09:40.000Z,5
2022-07-26T04:10:56.000Z,5
2022-07-26T04:12:13.000Z,5
2022-07-26T04:13:28.000Z,5
2022-07-26T04:14:44.000Z,5
2022-07-26T04:15:59.000Z,11
2022-07-26T04:17:15.000Z,11
2022-07-26T04:18:32.000Z,11
2022-07-26T04:19:48.000Z,11
2022-07-26T04:21:04.000Z,11
2022-07-26T04:22:20.000Z,11
2022-07-26T04:23:36.000Z,11
2022-07-26T04:24:53.000Z,11
2022-07-26T04:26:09.000Z,11
2022-07-26T04:27:25.000Z,11
2022-07-26T04:28:41.000Z,11
2022-07-26T04:29:57.000Z,11
2022-07-26T04:31:14.000Z,11
2022-07-26T04:32:29.000Z,11
2022-07-26T04:33:45.000Z,11
2022-07-26T04:35:01.000Z,11
2022-07-26T04:36:17.000Z,16
2022-07-26T04:37:34.000Z,16
2022-07-26T04:38:50.000Z,22
2022-07-26T04:40:05.000Z,22
2022-07-26T04:41:20.000Z,28
2022-07-26T04:42:36.000Z,33
2022-07-26T04:43:53.000Z,39
2022-07-26T04:45:09.000Z,50
2022-07-26T04:46:25.000Z,61
2022-07-26T04:48:57.000Z,90
2022-07-26T04:50:14.000Z,84
2022-07-26T04:51:30.000Z,84
2022-07-26T04:52:46.000Z,90
2022-07-26T04:54:02.000Z,106
2022-07-26T04:55:18.000Z,123
2022-07-26T04:56:34.000Z,140
2022-07-26T04:57:50.000Z,174
2022-07-26T04:59:06.000Z,196
2022-07-26T05:00:22.000Z,213
2022-07-26T05:01:38.000Z,219
2022-07-26T05:02:54.000Z,208
2022-07-26T05:04:11.000Z,208
2022-07-26T05:05:27.000Z,191
2022-07-26T05:06:43.000Z,185
2022-07-26T05:07:58.000Z,151
2022-07-26T05:09:13.000Z,140
2022-07-26T05:10:29.000Z,135
2022-07-26T05:11:44.000Z,123
2022-07-26T05:13:00.000Z,135
2022-07-26T05:14:16.000Z,140
2022-07-26T05:15:32.000Z,140
2022-07-26T05:16:47.000Z,140
2022-07-26T05:18:03.000Z,151
2022-07-26T05:19:19.000Z,163
2022-07-26T05:20:35.000Z,168
2022-07-26T05:21:51.000Z,174
2022-07-26T05:23:08.000Z,191
2022-07-26T05:24:24.000Z,196
2022-07-26T05:25:40.000Z,180
2022-07-26T05:26:56.000Z,157
2022-07-26T05:28:12.000Z,135
2022-07-26T05:29:29.000Z,118
2022-07-26T05:30:45.000Z,135
2022-07-26T05:32:01.000Z,140
2022-07-26T05:33:16.000Z,140
2022-07-26T05:34:32.000Z,135
2022-07-26T05:35:49.000Z,118
2022-07-26T05:37:05.000Z,101
2022-07-26T05:38:21.000Z,95
2022-07-26T05:39:37.000Z,90
2022-07-26T05:40:53.000Z,90
2022-07-26T05:42:09.000Z,90
2022-07-26T05:43:24.000Z,101
2022-07-26T05:44:39.000Z,123
2022-07-26T05:45:54.000Z,163
2022-07-26T05:47:10.000Z,208
2022-07-26T05:48:27.000Z,241
2022-07-26T05:49:43.000Z,264
2022-07-26T05:52:15.000Z,298
2022-07-26T05:53:31.000Z,331
2022-07-26T05:54:48.000Z,376
2022-07-26T05:56:04.000Z,360
2022-07-26T05:57:20.000Z,348
2022-07-26T05:58:36.000Z,376
2022-07-26T05:59:52.000Z,360
2022-07-26T06:01:09.000Z,326
2022-07-26T06:02:24.000Z,343
2022-07-26T06:03:40.000Z,315
2022-07-26T06:04:56.000Z,528
2022-07-26T06:06:12.000Z,292
2022-07-26T06:07:29.000Z,185
2022-07-26T06:08:45.000Z,196
2022-07-26T06:10:01.000Z,196
2022-07-26T06:11:17.000Z,151
2022-07-26T06:12:32.000Z,185
2022-07-26T06:13:48.000Z,326
2022-07-26T06:15:03.000Z,185
2022-07-26T06:16:18.000Z,168
2022-07-26T06:17:34.000Z,157
2022-07-26T06:18:50.000Z,157
2022-07-26T06:20:07.000Z,168
2022-07-26T06:21:23.000Z,185
2022-07-26T06:22:39.000Z,309
2022-07-26T06:23:55.000Z,371
2022-07-26T06:25:11.000Z,264
2022-07-26T06:26:28.000Z,281
2022-07-26T06:27:44.000Z,511
2022-07-26T06:30:16.000Z,523
2022-07-26T06:31:32.000Z,388
2022-07-26T06:32:48.000Z,264
2022-07-26T06:34:04.000Z,236
2022-07-26T06:35:20.000Z,253
2022-07-26T06:36:36.000Z,365
2022-07-26T06:37:52.000Z,376
2022-07-26T06:39:09.000Z,365
2022-07-26T06:40:25.000Z,337
2022-07-26T06:41:41.000Z,478
2022-07-26T06:42:56.000Z,3566
2022-07-26T06:44:11.000Z,3864
2022-07-26T06:45:27.000Z,1535
2022-07-26T06:46:42.000Z,821
2022-07-26T06:47:58.000Z,556
2022-07-26T06:49:14.000Z,534
2022-07-26T06:50:30.000Z,568
2022-07-26T06:51:47.000Z,562
2022-07-26T06:53:03.000Z,1361
2022-07-26T06:55:35.000Z,416
2022-07-26T06:56:51.000Z,388
2022-07-26T06:58:08.000Z,427
2022-07-26T06:59:24.000Z,478
2022-07-26T07:00:40.000Z,506
2022-07-26T07:01:56.000Z,1040
2022-07-26T07:03:11.000Z,3414
2022-07-26T07:04:27.000Z,4325
2022-07-26T07:05:44.000Z,4308
2022-07-26T07:07:00.000Z,2851
2022-07-26T07:08:16.000Z,2548
2022-07-26T07:09:32.000Z,731
2022-07-26T07:10:47.000Z,4078
2022-07-26T07:12:04.000Z,1417
2022-07-26T07:13:19.000Z,4275
2022-07-26T07:14:34.000Z,4573
2022-07-26T07:15:49.000Z,4488
2022-07-26T07:17:05.000Z,1186
2022-07-26T07:18:21.000Z,1395
2022-07-26T07:19:37.000Z,4089
2022-07-26T07:20:53.000Z,4381
2022-07-26T07:22:09.000Z,4488
2022-07-26T07:23:26.000Z,1580
2022-07-26T07:24:42.000Z,714
2022-07-26T07:25:58.000Z,832
2022-07-26T07:27:14.000Z,1096
2022-07-26T07:28:30.000Z,2165
2022-07-26T07:29:46.000Z,489
2022-07-26T07:31:03.000Z,371
2022-07-26T07:33:35.000Z,393
2022-07-26T07:34:50.000Z,2300
2022-07-26T07:36:06.000Z,360
2022-07-26T07:37:23.000Z,331
2022-07-26T07:38:39.000Z,922
2022-07-26T07:39:55.000Z,4595
2022-07-26T07:41:11.000Z,4758
2022-07-26T07:42:27.000Z,4798
2022-07-26T07:43:43.000Z,4781
2022-07-26T07:44:58.000Z,4775
2022-07-26T07:46:13.000Z,4747
2022-07-26T07:47:28.000Z,4775
2022-07-26T07:48:45.000Z,4612
2022-07-26T07:50:01.000Z,4185
2022-07-26T07:51:17.000Z,4668
2022-07-26T07:52:33.000Z,4696
2022-07-26T07:53:49.000Z,4708
2022-07-26T07:55:06.000Z,4753
2022-07-26T07:56:22.000Z,4685
2022-07-26T07:58:54.000Z,4629
2022-07-26T08:00:10.000Z,4809
2022-07-26T08:01:27.000Z,804
2022-07-26T08:02:43.000Z,4500
2022-07-26T08:03:58.000Z,894
2022-07-26T08:05:14.000Z,860
2022-07-26T08:07:47.000Z,725
2022-07-26T08:09:02.000Z,2334
2022-07-26T08:10:17.000Z,725
2022-07-26T08:11:33.000Z,545
2022-07-26T08:12:49.000Z,3183
2022-07-26T08:14:06.000Z,1946
2022-07-26T08:15:22.000Z,1755
2022-07-26T08:16:38.000Z,523
2022-07-26T08:17:54.000Z,461
2022-07-26T08:19:10.000Z,444
2022-07-26T08:20:27.000Z,472
2022-07-26T08:21:43.000Z,489
2022-07-26T08:22:58.000Z,444
2022-07-26T08:24:13.000Z,337
2022-07-26T08:25:29.000Z,286
2022-07-26T08:26:46.000Z,286
2022-07-26T08:28:02.000Z,315
2022-07-26T08:29:18.000Z,309
2022-07-26T08:30:34.000Z,270
2022-07-26T08:31:50.000Z,253
2022-07-26T08:33:07.000Z,213
2022-07-26T08:34:23.000Z,185
2022-07-26T08:36:55.000Z,135
2022-07-26T08:38:11.000Z,106
2022-07-26T08:39:28.000Z,78
2022-07-26T08:40:43.000Z,61
2022-07-26T08:41:59.000Z,56
2022-07-26T08:43:15.000Z,50
2022-07-26T08:44:31.000Z,50
2022-07-26T08:45:48.000Z,45
2022-07-26T08:48:20.000Z,39
2022-07-26T08:49:35.000Z,39
2022-07-26T08:50:50.000Z,39
2022-07-26T08:52:07.000Z,39
2022-07-26T08:53:23.000Z,39
2022-07-26T08:54:39.000Z,45
2022-07-26T08:55:55.000Z,39
2022-07-26T08:57:11.000Z,45
2022-07-26T08:58:28.000Z,50
2022-07-26T08:59:44.000Z,56
2022-07-26T09:01:00.000Z,61
2022-07-26T09:02:16.000Z,67
2022-07-26T09:03:31.000Z,73
2022-07-26T09:04:47.000Z,84
2022-07-26T09:06:03.000Z,95
2022-07-26T09:07:19.000Z,112
2022-07-26T09:08:35.000Z,118
2022-07-26T09:09:51.000Z,129
2022-07-26T09:11:07.000Z,140
2022-07-26T09:12:24.000Z,146
2022-07-26T09:14:56.000Z,168
2022-07-26T09:16:12.000Z,180
2022-07-26T09:17:28.000Z,185
2022-07-26T09:18:45.000Z,196
2022-07-26T09:20:01.000Z,202
2022-07-26T09:21:16.000Z,202
2022-07-26T09:22:32.000Z,196
2022-07-26T09:23:48.000Z,196
2022-07-26T09:25:05.000Z,196
2022-07-26T09:26:21.000Z,196
2022-07-26T09:27:37.000Z,202
2022-07-26T09:28:53.000Z,202
2022-07-26T09:30:09.000Z,208
2022-07-26T09:31:25.000Z,219
2022-07-26T09:32:40.000Z,230
2022-07-26T09:33:55.000Z,241
2022-07-26T09:35:10.000Z,258
2022-07-26T09:36:26.000Z,270
2022-07-26T09:37:41.000Z,275
2022-07-26T09:40:13.000Z,281
2022-07-26T09:41:29.000Z,281
2022-07-26T09:42:46.000Z,275
2022-07-26T09:44:02.000Z,275
2022-07-26T09:45:18.000Z,275
2022-07-26T09:46:34.000Z,270
2022-07-26T09:47:50.000Z,270
2022-07-26T09:49:07.000Z,275
2022-07-26T09:50:23.000Z,281
2022-07-26T09:51:39.000Z,292
2022-07-26T09:52:55.000Z,309
2022-07-26T09:54:10.000Z,331
2022-07-26T09:55:26.000Z,365
2022-07-26T09:56:43.000Z,405
2022-07-26T09:57:59.000Z,421
2022-07-26T09:59:15.000Z,444
2022-07-26T10:00:31.000Z,478
2022-07-26T10:01:47.000Z,500
2022-07-26T10:03:04.000Z,483
2022-07-26T10:04:19.000Z,506
2022-07-26T10:05:34.000Z,534
2022-07-26T10:06:49.000Z,534
2022-07-26T10:08:05.000Z,360
2022-07-26T10:09:21.000Z,180
2022-07-26T10:10:37.000Z,106
2022-07-26T10:11:53.000Z,78
2022-07-26T10:13:09.000Z,73
2022-07-26T10:14:26.000Z,67
2022-07-26T10:15:42.000Z,73
2022-07-26T10:16:58.000Z,84
2022-07-26T10:18:14.000Z,106
2022-07-26T10:19:30.000Z,129
2022-07-26T10:20:46.000Z,151
2022-07-26T10:22:03.000Z,163
2022-07-26T10:23:19.000Z,180
2022-07-26T10:24:34.000Z,191
2022-07-26T10:25:50.000Z,185
2022-07-26T10:27:06.000Z,168
2022-07-26T10:28:23.000Z,168
2022-07-26T10:29:39.000Z,185
2022-07-26T10:30:55.000Z,185
2022-07-26T10:32:11.000Z,191
2022-07-26T10:33:26.000Z,191
2022-07-26T10:34:42.000Z,180
2022-07-26T10:35:57.000Z,157
2022-07-26T10:37:12.000Z,151
2022-07-26T10:38:28.000Z,163
2022-07-26T10:39:45.000Z,180
2022-07-26T10:41:01.000Z,196
2022-07-26T10:43:33.000Z,258
2022-07-26T10:44:49.000Z,286
2022-07-26T10:46:05.000Z,298
2022-07-26T10:47:22.000Z,315
2022-07-26T10:48:38.000Z,326
2022-07-26T10:49:54.000Z,320
2022-07-26T10:51:10.000Z,292
2022-07-26T10:52:26.000Z,270
2022-07-26T10:53:42.000Z,258
2022-07-26T10:54:58.000Z,253
2022-07-26T10:56:14.000Z,247
2022-07-26T10:57:30.000Z,253
2022-07-26T10:58:46.000Z,258
2022-07-26T11:00:03.000Z,275
2022-07-26T11:01:19.000Z,292
2022-07-26T11:02:35.000Z,292
2022-07-26T11:03:50.000Z,292
2022-07-26T11:05:05.000Z,303
2022-07-26T11:06:21.000Z,303
2022-07-26T11:07:36.000Z,315
2022-07-26T11:08:52.000Z,326
2022-07-26T11:10:08.000Z,343
2022-07-26T11:11:25.000Z,348
2022-07-26T11:12:41.000Z,348
2022-07-26T11:13:57.000Z,348
2022-07-26T11:15:13.000Z,343
2022-07-26T11:16:29.000Z,348
2022-07-26T11:17:45.000Z,365
2022-07-26T11:19:02.000Z,388
2022-07-26T11:21:34.000Z,427
2022-07-26T11:22:50.000Z,416
2022-07-26T11:24:05.000Z,382
2022-07-26T11:25:21.000Z,343
2022-07-26T11:26:37.000Z,315
2022-07-26T11:27:53.000Z,303
2022-07-26T11:29:09.000Z,303
2022-07-26T11:30:25.000Z,309
2022-07-26T11:31:42.000Z,326
2022-07-26T11:32:58.000Z,331
2022-07-26T11:34:13.000Z,331
2022-07-26T11:35:28.000Z,337
2022-07-26T11:36:44.000Z,337
2022-07-26T11:38:01.000Z,337
2022-07-26T11:39:17.000Z,337
2022-07-26T11:40:33.000Z,326
2022-07-26T11:41:49.000Z,320
2022-07-26T11:43:05.000Z,315
2022-07-26T11:44:22.000Z,298
2022-07-26T11:46:54.000Z,292
2022-07-26T11:48:10.000Z,292
2022-07-26T11:49:26.000Z,298
2022-07-26T11:50:43.000Z,298
2022-07-26T11:51:58.000Z,309
2022-07-26T11:53:14.000Z,315
2022-07-26T11:54:30.000Z,320
2022-07-26T11:55:46.000Z,337
2022-07-26T11:57:03.000Z,348
2022-07-26T11:58:19.000Z,343
2022-07-26T11:59:35.000Z,343
2022-07-26T12:00:51.000Z,315
2022-07-26T12:02:06.000Z,292
2022-07-26T12:03:22.000Z,281
2022-07-26T12:04:37.000Z,281
2022-07-26T12:07:08.000Z,298
2022-07-26T12:08:24.000Z,315
2022-07-26T12:09:40.000Z,337
2022-07-26T12:10:55.000Z,360
2022-07-26T12:12:11.000Z,371
2022-07-26T12:13:27.000Z,388
2022-07-26T12:14:43.000Z,405
2022-07-26T12:16:00.000Z,433
2022-07-26T12:17:16.000Z,466
2022-07-26T12:18:32.000Z,478
2022-07-26T12:19:48.000Z,495
2022-07-26T12:21:04.000Z,466
2022-07-26T12:22:21.000Z,416
2022-07-26T12:24:53.000Z,343
2022-07-26T12:26:09.000Z,309
2022-07-26T12:27:24.000Z,298
2022-07-26T12:28:41.000Z,292
2022-07-26T12:29:57.000Z,247
2022-07-26T12:31:13.000Z,191
2022-07-26T12:32:29.000Z,140
2022-07-26T12:33:45.000Z,106
2022-07-26T12:35:02.000Z,61
2022-07-26T12:36:18.000Z,50
2022-07-26T12:37:33.000Z,56
2022-07-26T12:38:48.000Z,67
2022-07-26T12:40:03.000Z,78
2022-07-26T12:41:19.000Z,90
2022-07-26T12:42:35.000Z,101
2022-07-26T12:43:51.000Z,112
2022-07-26T12:45:07.000Z,118
2022-07-26T12:46:23.000Z,129
2022-07-26T12:47:40.000Z,140
2022-07-26T12:50:12.000Z,157
2022-07-26T12:51:28.000Z,157
2022-07-26T12:52:44.000Z,157
2022-07-26T12:54:01.000Z,157
2022-07-26T12:55:17.000Z,163
2022-07-26T12:56:33.000Z,163
2022-07-26T12:57:48.000Z,163
2022-07-26T12:59:04.000Z,157
2022-07-26T13:00:21.000Z,157
2022-07-26T13:01:37.000Z,157
2022-07-26T13:02:53.000Z,163
2022-07-26T13:04:09.000Z,163
2022-07-26T13:05:25.000Z,163
2022-07-26T13:06:42.000Z,157
2022-07-26T13:07:57.000Z,151
2022-07-26T13:09:12.000Z,140
2022-07-26T13:10:27.000Z,140
2022-07-26T13:11:42.000Z,140
2022-07-26T13:12:59.000Z,151
2022-07-26T13:14:15.000Z,163
2022-07-26T13:15:31.000Z,180
2022-07-26T13:16:47.000Z,191
2022-07-26T13:18:03.000Z,202
2022-07-26T13:19:20.000Z,196
2022-07-26T13:20:36.000Z,202
2022-07-26T13:21:52.000Z,202
2022-07-26T13:23:08.000Z,208
2022-07-26T13:24:24.000Z,213
2022-07-26T13:25:41.000Z,219
2022-07-26T13:28:13.000Z,247
2022-07-26T13:29:28.000Z,258
2022-07-26T13:30:44.000Z,258
2022-07-26T13:32:01.000Z,275
2022-07-26T13:33:17.000Z,292
2022-07-26T13:34:33.000Z,320
2022-07-26T13:35:49.000Z,343
2022-07-26T13:37:05.000Z,354
2022-07-26T13:38:21.000Z,365
2022-07-26T13:39:37.000Z,371
2022-07-26T13:40:52.000Z,365
2022-07-26T13:42:08.000Z,365
2022-07-26T13:43:23.000Z,354
2022-07-26T13:44:39.000Z,348
2022-07-26T13:45:55.000Z,348
2022-07-26T13:47:11.000Z,348
2022-07-26T13:48:27.000Z,354
2022-07-26T13:49:43.000Z,343
2022-07-26T13:51:00.000Z,354
2022-07-26T13:52:16.000Z,354
2022-07-26T13:53:32.000Z,354
2022-07-26T13:54:48.000Z,354
2022-07-26T13:56:04.000Z,354
2022-07-26T13:57:21.000Z,337
2022-07-26T13:58:37.000Z,326
2022-07-26T13:59:53.000Z,326
2022-07-26T14:01:08.000Z,337
2022-07-26T14:02:24.000Z,354
2022-07-26T14:03:41.000Z,371
2022-07-26T14:04:57.000Z,382
2022-07-26T14:06:13.000Z,427
2022-07-26T14:07:29.000Z,382
2022-07-26T14:08:45.000Z,388
2022-07-26T14:10:01.000Z,393
2022-07-26T14:11:16.000Z,388
2022-07-26T14:12:32.000Z,393
2022-07-26T14:13:47.000Z,410
2022-07-26T14:15:02.000Z,416
2022-07-26T14:16:19.000Z,399
2022-07-26T14:17:35.000Z,399
2022-07-26T14:18:51.000Z,388
2022-07-26T14:20:07.000Z,365
2022-07-26T14:21:23.000Z,354
2022-07-26T14:22:40.000Z,320
2022-07-26T14:23:56.000Z,320
2022-07-26T14:25:12.000Z,309
2022-07-26T14:26:28.000Z,303
2022-07-26T14:27:44.000Z,303
2022-07-26T14:29:01.000Z,303
2022-07-26T14:31:33.000Z,292
2022-07-26T14:32:48.000Z,281
2022-07-26T14:34:04.000Z,275
2022-07-26T14:35:21.000Z,264
2022-07-26T14:36:37.000Z,253
2022-07-26T14:37:53.000Z,230
2022-07-26T14:39:09.000Z,202
2022-07-26T14:40:25.000Z,174
2022-07-26T14:41:41.000Z,157
2022-07-26T14:42:56.000Z,151
2022-07-26T14:44:12.000Z,140
2022-07-26T14:45:27.000Z,140
2022-07-26T14:46:42.000Z,146
2022-07-26T14:47:59.000Z,151
2022-07-26T14:49:15.000Z,151
2022-07-26T14:50:31.000Z,151
2022-07-26T14:51:47.000Z,146
2022-07-26T14:53:03.000Z,146
2022-07-26T14:54:20.000Z,140
2022-07-26T14:55:36.000Z,140
2022-07-26T14:56:52.000Z,146
2022-07-26T14:58:08.000Z,163
2022-07-26T14:59:24.000Z,185
2022-07-26T15:00:41.000Z,202
2022-07-26T15:01:57.000Z,191
2022-07-26T15:03:12.000Z,180
2022-07-26T15:04:28.000Z,174
2022-07-26T15:05:44.000Z,163
2022-07-26T15:07:01.000Z,151
2022-07-26T15:09:33.000Z,146
2022-07-26T15:10:49.000Z,146
2022-07-26T15:12:05.000Z,151
2022-07-26T15:13:21.000Z,151
2022-07-26T15:14:36.000Z,151
2022-07-26T15:15:51.000Z,151
2022-07-26T15:17:06.000Z,151
2022-07-26T15:18:22.000Z,157
2022-07-26T15:19:39.000Z,157
2022-07-26T15:20:55.000Z,163
2022-07-26T15:22:11.000Z,174
2022-07-26T15:23:27.000Z,185
2022-07-26T15:24:43.000Z,213
2022-07-26T15:26:00.000Z,247
2022-07-26T15:27:16.000Z,292
2022-07-26T15:28:32.000Z,315
2022-07-26T15:29:48.000Z,348
2022-07-26T15:31:04.000Z,281
2022-07-26T15:32:21.000Z,275
2022-07-26T15:34:52.000Z,281
2022-07-26T15:36:08.000Z,258
2022-07-26T15:37:24.000Z,241
2022-07-26T15:38:41.000Z,213
2022-07-26T15:39:56.000Z,196
2022-07-26T15:41:12.000Z,191
2022-07-26T15:42:28.000Z,174
2022-07-26T15:43:43.000Z,174
2022-07-26T15:44:59.000Z,180
2022-07-26T15:46:14.000Z,168
2022-07-26T15:47:29.000Z,174
2022-07-26T15:48:45.000Z,185
2022-07-26T15:50:01.000Z,208
2022-07-26T15:51:18.000Z,298
2022-07-26T15:52:34.000Z,247
2022-07-26T15:53:50.000Z,225
2022-07-26T15:55:06.000Z,275
2022-07-26T15:56:22.000Z,258
2022-07-26T15:57:39.000Z,315
2022-07-26T15:58:55.000Z,331
2022-07-26T16:00:11.000Z,348
2022-07-26T16:01:27.000Z,348
2022-07-26T16:02:43.000Z,343
2022-07-26T16:03:59.000Z,264
2022-07-26T16:05:15.000Z,365
2022-07-26T16:06:31.000Z,281
2022-07-26T16:07:47.000Z,281
2022-07-26T16:09:03.000Z,315
2022-07-26T16:10:20.000Z,258
2022-07-26T16:11:36.000Z,247
2022-07-26T16:12:51.000Z,241
2022-07-26T16:14:06.000Z,230
2022-07-26T16:15:21.000Z,213
2022-07-26T16:16:37.000Z,208
2022-07-26T16:17:53.000Z,196
2022-07-26T16:20:25.000Z,208
2022-07-26T16:21:41.000Z,208
2022-07-26T16:22:58.000Z,213
2022-07-26T16:24:14.000Z,213
2022-07-26T16:25:30.000Z,213
2022-07-26T16:26:46.000Z,208
2022-07-26T16:28:02.000Z,202
2022-07-26T16:29:19.000Z,191
2022-07-26T16:30:35.000Z,180
2022-07-26T16:31:51.000Z,180
2022-07-26T16:33:06.000Z,185
2022-07-26T16:34:22.000Z,202
2022-07-26T16:35:39.000Z,208
2022-07-26T16:38:11.000Z,191
2022-07-26T16:39:26.000Z,174
2022-07-26T16:40:41.000Z,151
2022-07-26T16:41:58.000Z,135
2022-07-26T16:43:14.000Z,129
2022-07-26T16:44:30.000Z,129
2022-07-26T16:45:46.000Z,135
2022-07-26T16:47:02.000Z,146
2022-07-26T16:48:19.000Z,157
2022-07-26T16:49:35.000Z,163
2022-07-26T16:50:51.000Z,219
2022-07-26T16:52:07.000Z,151
2022-07-26T16:53:22.000Z,129
2022-07-26T16:54:38.000Z,118
2022-07-26T16:55:54.000Z,118
2022-07-26T16:57:10.000Z,123
2022-07-26T16:58:26.000Z,135
2022-07-26T16:59:42.000Z,140
2022-07-26T17:00:59.000Z,146
2022-07-26T17:02:15.000Z,219
2022-07-26T17:03:31.000Z,140
2022-07-26T17:04:47.000Z,146
2022-07-26T17:06:03.000Z,146
2022-07-26T17:07:20.000Z,146
2022-07-26T17:08:36.000Z,146
2022-07-26T17:09:52.000Z,208
2022-07-26T17:11:07.000Z,140
2022-07-26T17:12:23.000Z,140
2022-07-26T17:13:40.000Z,135
2022-07-26T17:16:12.000Z,135
2022-07-26T17:17:28.000Z,146
2022-07-26T17:18:44.000Z,146
2022-07-26T17:20:01.000Z,146
2022-07-26T17:21:16.000Z,146
2022-07-26T17:22:31.000Z,151
2022-07-26T17:23:47.000Z,157
2022-07-26T17:25:03.000Z,163
2022-07-26T17:26:20.000Z,151
2022-07-26T17:27:36.000Z,151
2022-07-26T17:28:52.000Z,140
2022-07-26T17:30:08.000Z,135
2022-07-26T17:31:24.000Z,129
2022-07-26T17:32:41.000Z,118
2022-07-26T17:33:57.000Z,101
2022-07-26T17:35:13.000Z,90
2022-07-26T17:36:29.000Z,84
2022-07-26T17:37:45.000Z,78
2022-07-26T17:39:01.000Z,78
2022-07-26T17:40:17.000Z,84
2022-07-26T17:41:33.000Z,90
2022-07-26T17:42:49.000Z,90
2022-07-26T17:44:05.000Z,90
2022-07-26T17:45:21.000Z,90
2022-07-26T17:46:38.000Z,90
2022-07-26T17:47:53.000Z,112
2022-07-26T17:49:08.000Z,90
2022-07-26T17:50:24.000Z,95
2022-07-26T17:51:40.000Z,101
2022-07-26T17:52:55.000Z,106
2022-07-26T17:55:27.000Z,123
2022-07-26T17:56:42.000Z,129
2022-07-26T17:57:58.000Z,129
2022-07-26T17:59:14.000Z,129
2022-07-26T18:00:30.000Z,135
2022-07-26T18:01:46.000Z,123
2022-07-26T18:03:02.000Z,118
2022-07-26T18:04:18.000Z,112
2022-07-26T18:05:35.000Z,101
2022-07-26T18:06:51.000Z,90
2022-07-26T18:08:07.000Z,84
2022-07-26T18:09:23.000Z,78
2022-07-26T18:10:39.000Z,73
2022-07-26T18:11:56.000Z,67
2022-07-26T18:13:12.000Z,67
2022-07-26T18:14:27.000Z,61
2022-07-26T18:15:43.000Z,61
2022-07-26T18:16:59.000Z,56
2022-07-26T18:19:32.000Z,56
2022-07-26T18:20:48.000Z,50